sensor_id;sensor_type;location;lat;lon;timestamp;pressure;altitude;pressure_sealevel;temperature;humidity
33280;BME280;20403;43.114;12.434;2024-01-25T00:00:56;100310.28;;;2.71;100.00
33280;BME280;20403;43.114;12.434;2024-01-25T00:03:21;100307.84;;;2.70;100.00
33280;BME280;20403;43.114;12.434;2024-01-25T00:05:47;100294.09;;;2.89;100.00
33280;BME280;20403;43.114;12.434;2024-01-25T00:08:12;100294.28;;;2.78;100.00
33280;BME280;20403;43.114;12.434;2024-01-25T00:10:38;100290.63;;;2.70;100.00
33280;BME280;20403;43.114;12.434;2024-01-25T00:13:03;100287.72;;;2.83;100.00
33280;BME280;20403;43.114;12.434;2024-01-25T00:15:29;100281.84;;;2.91;100.00
33280;BME280;20403;43.114;12.434;2024-01-25T00:17:54;100278.94;;;2.76;100.00
33280;BME280;20403;43.114;12.434;2024-01-25T00:20:20;100277.50;;;2.64;100.00
33280;BME280;20403;43.114;12.434;2024-01-25T00:22:45;100275.19;;;2.70;100.00
33280;BME280;20403;43.114;12.434;2024-01-25T00:25:11;100267.31;;;2.72;100.00
33280;BME280;20403;43.114;12.434;2024-01-25T00:27:36;100278.34;;;2.55;100.00
33280;BME280;20403;43.114;12.434;2024-01-25T00:30:02;100273.88;;;2.57;100.00
33280;BME280;20403;43.114;12.434;2024-01-25T00:32:29;100274.03;;;2.45;100.00
33280;BME280;20403;43.114;12.434;2024-01-25T00:34:55;100267.75;;;2.58;100.00
33280;BME280;20403;43.114;12.434;2024-01-25T00:37:21;100267.94;;;2.46;100.00
33280;BME280;20403;43.114;12.434;2024-01-25T00:39:46;100267.56;;;2.41;100.00
33280;BME280;20403;43.114;12.434;2024-01-25T00:42:14;100257.78;;;2.45;100.00
33280;BME280;20403;43.114;12.434;2024-01-25T00:44:41;100264.00;;;2.42;100.00
33280;BME280;20403;43.114;12.434;2024-01-25T00:47:07;100270.53;;;2.37;100.00
33280;BME280;20403;43.114;12.434;2024-01-25T00:49:32;100265.41;;;2.27;100.00
33280;BME280;20403;43.114;12.434;2024-01-25T00:51:59;100273.56;;;2.22;100.00
33280;BME280;20403;43.114;12.434;2024-01-25T00:54:27;100279.19;;;2.36;100.00
33280;BME280;20403;43.114;12.434;2024-01-25T00:56:53;100272.41;;;2.44;100.00
33280;BME280;20403;43.114;12.434;2024-01-25T00:59:19;100285.84;;;2.38;100.00
33280;BME280;20403;43.114;12.434;2024-01-25T01:01:47;100287.69;;;2.56;100.00
33280;BME280;20403;43.114;12.434;2024-01-25T01:04:14;100276.03;;;2.61;100.00
33280;BME280;20403;43.114;12.434;2024-01-25T01:06:39;100284.19;;;2.47;100.00
33280;BME280;20403;43.114;12.434;2024-01-25T01:09:05;100281.59;;;2.47;100.00
33280;BME280;20403;43.114;12.434;2024-01-25T01:11:30;100280.16;;;2.35;100.00
33280;BME280;20403;43.114;12.434;2024-01-25T01:13:56;100282.59;;;2.36;100.00
33280;BME280;20403;43.114;12.434;2024-01-25T01:16:21;100283.28;;;2.28;100.00
33280;BME280;20403;43.114;12.434;2024-01-25T01:18:47;100276.09;;;2.32;100.00
33280;BME280;20403;43.114;12.434;2024-01-25T01:21:12;100284.00;;;2.11;100.00
33280;BME280;20403;43.114;12.434;2024-01-25T01:23:37;100273.56;;;2.03;100.00
33280;BME280;20403;43.114;12.434;2024-01-25T01:26:04;100275.47;;;2.10;100.00
33280;BME280;20403;43.114;12.434;2024-01-25T01:28:29;100268.94;;;2.16;100.00
33280;BME280;20403;43.114;12.434;2024-01-25T01:30:55;100265.59;;;2.06;100.00
33280;BME280;20403;43.114;12.434;2024-01-25T01:33:20;100267.06;;;2.18;100.00
33280;BME280;20403;43.114;12.434;2024-01-25T01:35:46;100277.38;;;1.99;100.00
33280;BME280;20403;43.114;12.434;2024-01-25T01:38:11;100262.78;;;1.89;100.00
33280;BME280;20403;43.114;12.434;2024-01-25T01:40:37;100263.03;;;2.06;100.00
33280;BME280;20403;43.114;12.434;2024-01-25T01:43:02;100254.63;;;2.04;100.00
33280;BME280;20403;43.114;12.434;2024-01-25T01:45:28;100263.03;;;2.06;100.00
33280;BME280;20403;43.114;12.434;2024-01-25T01:47:55;100268.31;;;1.85;100.00
33280;BME280;20403;43.114;12.434;2024-01-25T01:50:21;100269.53;;;1.91;100.00
33280;BME280;20403;43.114;12.434;2024-01-25T01:52:48;100257.44;;;2.01;100.00
33280;BME280;20403;43.114;12.434;2024-01-25T01:55:14;100253.66;;;2.05;100.00
33280;BME280;20403;43.114;12.434;2024-01-25T01:57:41;100254.38;;;1.87;100.00
33280;BME280;20403;43.114;12.434;2024-01-25T02:00:08;100245.03;;;1.77;100.00
33280;BME280;20403;43.114;12.434;2024-01-25T02:02:35;100248.69;;;1.74;100.00
33280;BME280;20403;43.114;12.434;2024-01-25T02:05:00;100240.03;;;1.85;100.00
33280;BME280;20403;43.114;12.434;2024-01-25T02:07:26;100243.16;;;1.69;100.00
33280;BME280;20403;43.114;12.434;2024-01-25T02:09:52;100238.53;;;1.73;100.00
33280;BME280;20403;43.114;12.434;2024-01-25T02:12:17;100234.22;;;1.83;100.00
33280;BME280;20403;43.114;12.434;2024-01-25T02:14:43;100230.81;;;1.92;100.00
33280;BME280;20403;43.114;12.434;2024-01-25T02:17:08;100228.50;;;1.99;100.00
33280;BME280;20403;43.114;12.434;2024-01-25T02:19:34;100213.06;;;1.99;100.00
33280;BME280;20403;43.114;12.434;2024-01-25T02:22:00;100221.50;;;1.72;100.00
33280;BME280;20403;43.114;12.434;2024-01-25T02:24:26;100221.59;;;1.80;100.00
33280;BME280;20403;43.114;12.434;2024-01-25T02:26:51;100224.06;;;1.52;100.00
33280;BME280;20403;43.114;12.434;2024-01-25T02:29:17;100219.19;;;1.59;100.00
33280;BME280;20403;43.114;12.434;2024-01-25T02:31:42;100209.31;;;1.64;100.00
33280;BME280;20403;43.114;12.434;2024-01-25T02:34:07;100219.47;;;1.65;100.00
33280;BME280;20403;43.114;12.434;2024-01-25T02:36:33;100218.63;;;1.75;100.00
33280;BME280;20403;43.114;12.434;2024-01-25T02:38:58;100226.63;;;1.81;100.00
33280;BME280;20403;43.114;12.434;2024-01-25T02:41:24;100221.50;;;1.62;100.00
33280;BME280;20403;43.114;12.434;2024-01-25T02:43:49;100212.97;;;1.52;100.00
33280;BME280;20403;43.114;12.434;2024-01-25T02:46:14;100215.69;;;1.70;100.00
33280;BME280;20403;43.114;12.434;2024-01-25T02:48:40;100218.38;;;1.49;100.00
33280;BME280;20403;43.114;12.434;2024-01-25T02:51:05;100210.94;;;1.55;100.00
33280;BME280;20403;43.114;12.434;2024-01-25T02:53:31;100215.41;;;1.53;100.00
33280;BME280;20403;43.114;12.434;2024-01-25T02:55:56;100204.44;;;1.61;100.00
33280;BME280;20403;43.114;12.434;2024-01-25T02:58:21;100196.34;;;1.46;100.00
33280;BME280;20403;43.114;12.434;2024-01-25T03:00:47;100196.63;;;1.53;100.00
33280;BME280;20403;43.114;12.434;2024-01-25T03:03:12;100204.31;;;1.33;100.00
33280;BME280;20403;43.114;12.434;2024-01-25T03:05:38;100185.50;;;1.52;100.00
33280;BME280;20403;43.114;12.434;2024-01-25T03:08:04;100193.75;;;1.36;100.00
33280;BME280;20403;43.114;12.434;2024-01-25T03:10:29;100198.75;;;1.38;100.00
33280;BME280;20403;43.114;12.434;2024-01-25T03:12:54;100203.38;;;1.44;100.00
33280;BME280;20403;43.114;12.434;2024-01-25T03:15:20;100194.16;;;1.32;100.00
33280;BME280;20403;43.114;12.434;2024-01-25T03:17:46;100192.94;;;1.36;100.00
33280;BME280;20403;43.114;12.434;2024-01-25T03:20:11;100184.16;;;1.38;100.00
33280;BME280;20403;43.114;12.434;2024-01-25T03:22:37;100177.41;;;1.37;100.00
33280;BME280;20403;43.114;12.434;2024-01-25T03:25:02;100172.66;;;1.33;100.00
33280;BME280;20403;43.114;12.434;2024-01-25T03:27:28;100177.78;;;1.42;100.00
33280;BME280;20403;43.114;12.434;2024-01-25T03:29:53;100189.81;;;1.22;100.00
33280;BME280;20403;43.114;12.434;2024-01-25T03:32:19;100184.28;;;1.17;100.00
33280;BME280;20403;43.114;12.434;2024-01-25T03:34:44;100192.53;;;1.21;100.00
33280;BME280;20403;43.114;12.434;2024-01-25T03:37:09;100189.44;;;1.37;100.00
33280;BME280;20403;43.114;12.434;2024-01-25T03:39:35;100172.53;;;1.34;100.00
33280;BME280;20403;43.114;12.434;2024-01-25T03:42:00;100181.47;;;1.30;100.00
33280;BME280;20403;43.114;12.434;2024-01-25T03:44:26;100171.19;;;1.30;100.00
33280;BME280;20403;43.114;12.434;2024-01-25T03:46:51;100167.66;;;1.51;100.00
33280;BME280;20403;43.114;12.434;2024-01-25T03:49:17;100166.41;;;1.55;100.00
33280;BME280;20403;43.114;12.434;2024-01-25T03:51:42;100166.69;;;1.52;100.00
33280;BME280;20403;43.114;12.434;2024-01-25T03:54:08;100159.53;;;1.36;100.00
33280;BME280;20403;43.114;12.434;2024-01-25T03:56:33;100164.56;;;1.28;100.00
33280;BME280;20403;43.114;12.434;2024-01-25T03:58:58;100155.88;;;1.38;100.00
33280;BME280;20403;43.114;12.434;2024-01-25T04:01:24;100179.13;;;1.17;100.00
33280;BME280;20403;43.114;12.434;2024-01-25T04:03:49;100175.63;;;1.28;100.00
33280;BME280;20403;43.114;12.434;2024-01-25T04:06:15;100175.47;;;1.20;100.00
33280;BME280;20403;43.114;12.434;2024-01-25T04:08:40;100177.66;;;1.05;100.00
33280;BME280;20403;43.114;12.434;2024-01-25T04:11:05;100178.84;;;1.11;100.00
33280;BME280;20403;43.114;12.434;2024-01-25T04:13:31;100179.00;;;1.19;100.00
33280;BME280;20403;43.114;12.434;2024-01-25T04:15:56;100171.97;;;1.21;100.00
33280;BME280;20403;43.114;12.434;2024-01-25T04:18:22;100156.13;;;1.06;100.00
33280;BME280;20403;43.114;12.434;2024-01-25T04:20:47;100168.97;;;1.06;100.00
33280;BME280;20403;43.114;12.434;2024-01-25T04:23:12;100169.94;;;1.24;100.00
33280;BME280;20403;43.114;12.434;2024-01-25T04:25:38;100173.47;;;1.23;100.00
33280;BME280;20403;43.114;12.434;2024-01-25T04:28:03;100169.25;;;1.03;100.00
33280;BME280;20403;43.114;12.434;2024-01-25T04:30:29;100158.69;;;0.96;100.00
33280;BME280;20403;43.114;12.434;2024-01-25T04:32:56;100168.28;;;0.84;100.00
33280;BME280;20403;43.114;12.434;2024-01-25T04:35:21;100167.22;;;0.97;100.00
33280;BME280;20403;43.114;12.434;2024-01-25T04:37:47;100162.91;;;0.97;100.00
33280;BME280;20403;43.114;12.434;2024-01-25T04:40:12;100152.25;;;1.02;100.00
33280;BME280;20403;43.114;12.434;2024-01-25T04:42:37;100161.81;;;1.00;100.00
33280;BME280;20403;43.114;12.434;2024-01-25T04:45:03;100148.59;;;1.24;100.00
33280;BME280;20403;43.114;12.434;2024-01-25T04:47:29;100154.00;;;1.11;100.00
33280;BME280;20403;43.114;12.434;2024-01-25T04:49:54;100145.34;;;1.22;100.00
33280;BME280;20403;43.114;12.434;2024-01-25T04:52:20;100154.66;;;1.13;100.00
33280;BME280;20403;43.114;12.434;2024-01-25T04:54:45;100155.34;;;0.96;100.00
33280;BME280;20403;43.114;12.434;2024-01-25T04:57:10;100158.31;;;1.01;100.00
33280;BME280;20403;43.114;12.434;2024-01-25T04:59:36;100161.94;;;0.98;100.00
33280;BME280;20403;43.114;12.434;2024-01-25T05:02:01;100167.38;;;1.05;100.00
33280;BME280;20403;43.114;12.434;2024-01-25T05:04:28;100153.31;;;1.09;100.00
33280;BME280;20403;43.114;12.434;2024-01-25T05:06:54;100166.69;;;0.93;100.00
33280;BME280;20403;43.114;12.434;2024-01-25T05:09:20;100163.19;;;1.14;100.00
33280;BME280;20403;43.114;12.434;2024-01-25T05:11:45;100167.38;;;1.24;100.00
33280;BME280;20403;43.114;12.434;2024-01-25T05:14:11;100151.84;;;1.26;100.00
33280;BME280;20403;43.114;12.434;2024-01-25T05:16:36;100144.66;;;1.20;100.00
33280;BME280;20403;43.114;12.434;2024-01-25T05:19:02;100145.22;;;1.23;100.00
33280;BME280;20403;43.114;12.434;2024-01-25T05:21:27;100142.38;;;1.26;100.00
33280;BME280;20403;43.114;12.434;2024-01-25T05:23:53;100143.19;;;1.37;100.00
33280;BME280;20403;43.114;12.434;2024-01-25T05:26:18;100155.63;;;1.22;100.00
33280;BME280;20403;43.114;12.434;2024-01-25T05:28:44;100169.66;;;1.18;100.00
33280;BME280;20403;43.114;12.434;2024-01-25T05:31:10;100185.06;;;1.18;100.00
33280;BME280;20403;43.114;12.434;2024-01-25T05:33:39;100183.47;;;1.36;100.00
33280;BME280;20403;43.114;12.434;2024-01-25T05:36:04;100182.94;;;1.42;100.00
33280;BME280;20403;43.114;12.434;2024-01-25T05:38:31;100185.91;;;1.67;100.00
33280;BME280;20403;43.114;12.434;2024-01-25T05:40:57;100181.44;;;1.69;100.00
33280;BME280;20403;43.114;12.434;2024-01-25T05:43:23;100180.19;;;1.73;100.00
33280;BME280;20403;43.114;12.434;2024-01-25T05:45:48;100186.44;;;1.61;100.00
33280;BME280;20403;43.114;12.434;2024-01-25T05:48:14;100195.91;;;1.70;100.00
33280;BME280;20403;43.114;12.434;2024-01-25T05:50:39;100179.38;;;1.92;100.00
33280;BME280;20403;43.114;12.434;2024-01-25T05:53:05;100181.13;;;1.92;100.00
33280;BME280;20403;43.114;12.434;2024-01-25T05:55:30;100180.34;;;1.81;100.00
33280;BME280;20403;43.114;12.434;2024-01-25T05:57:56;100194.16;;;1.80;100.00
33280;BME280;20403;43.114;12.434;2024-01-25T06:00:21;100205.50;;;1.97;100.00
33280;BME280;20403;43.114;12.434;2024-01-25T06:02:47;100204.78;;;2.05;100.00
33280;BME280;20403;43.114;12.434;2024-01-25T06:05:12;100206.91;;;2.19;100.00
33280;BME280;20403;43.114;12.434;2024-01-25T06:07:38;100206.78;;;2.21;100.00
33280;BME280;20403;43.114;12.434;2024-01-25T06:10:03;100203.41;;;2.20;100.00
33280;BME280;20403;43.114;12.434;2024-01-25T06:12:29;100212.50;;;2.05;100.00
33280;BME280;20403;43.114;12.434;2024-01-25T06:14:54;100210.31;;;2.10;100.00
33280;BME280;20403;43.114;12.434;2024-01-25T06:17:20;100209.50;;;2.19;100.00
33280;BME280;20403;43.114;12.434;2024-01-25T06:19:45;100210.75;;;2.15;100.00
33280;BME280;20403;43.114;12.434;2024-01-25T06:22:10;100215.22;;;2.03;100.00
33280;BME280;20403;43.114;12.434;2024-01-25T06:24:38;100229.81;;;2.13;100.00
33280;BME280;20403;43.114;12.434;2024-01-25T06:27:03;100217.88;;;2.21;100.00
33280;BME280;20403;43.114;12.434;2024-01-25T06:29:29;100224.09;;;2.28;100.00
33280;BME280;20403;43.114;12.434;2024-01-25T06:31:54;100233.97;;;2.33;100.00
33280;BME280;20403;43.114;12.434;2024-01-25T06:34:20;100234.22;;;2.40;100.00
33280;BME280;20403;43.114;12.434;2024-01-25T06:36:45;100235.06;;;2.30;100.00
33280;BME280;20403;43.114;12.434;2024-01-25T06:39:11;100254.13;;;2.38;100.00
33280;BME280;20403;43.114;12.434;2024-01-25T06:41:36;100240.31;;;2.39;100.00
33280;BME280;20403;43.114;12.434;2024-01-25T06:44:02;100236.69;;;2.22;100.00
33280;BME280;20403;43.114;12.434;2024-01-25T06:46:28;100244.59;;;2.10;100.00
33280;BME280;20403;43.114;12.434;2024-01-25T06:48:53;100247.31;;;2.09;100.00
33280;BME280;20403;43.114;12.434;2024-01-25T06:51:19;100251.16;;;2.33;100.00
33280;BME280;20403;43.114;12.434;2024-01-25T06:53:44;100243.16;;;2.36;100.00
33280;BME280;20403;43.114;12.434;2024-01-25T06:56:10;100227.97;;;2.52;100.00
33280;BME280;20403;43.114;12.434;2024-01-25T06:58:35;100235.53;;;2.53;100.00
33280;BME280;20403;43.114;12.434;2024-01-25T07:01:01;100244.34;;;2.51;100.00
33280;BME280;20403;43.114;12.434;2024-01-25T07:03:26;100252.63;;;2.45;100.00
33280;BME280;20403;43.114;12.434;2024-01-25T07:05:52;100242.75;;;2.40;100.00
33280;BME280;20403;43.114;12.434;2024-01-25T07:08:17;100246.66;;;2.44;100.00
33280;BME280;20403;43.114;12.434;2024-01-25T07:10:44;100237.75;;;2.39;100.00
33280;BME280;20403;43.114;12.434;2024-01-25T07:13:09;100241.81;;;2.41;100.00
33280;BME280;20403;43.114;12.434;2024-01-25T07:15:35;100243.97;;;2.46;100.00
33280;BME280;20403;43.114;12.434;2024-01-25T07:18:00;100241.00;;;2.41;100.00
33280;BME280;20403;43.114;12.434;2024-01-25T07:20:26;100227.13;;;2.51;100.00
33280;BME280;20403;43.114;12.434;2024-01-25T07:22:51;100229.41;;;2.64;100.00
33280;BME280;20403;43.114;12.434;2024-01-25T07:25:17;100215.81;;;2.72;100.00
33280;BME280;20403;43.114;12.434;2024-01-25T07:27:46;100213.16;;;2.64;100.00
33280;BME280;20403;43.114;12.434;2024-01-25T07:30:12;100216.69;;;2.53;100.00
33280;BME280;20403;43.114;12.434;2024-01-25T07:32:38;100216.31;;;2.48;100.00
33280;BME280;20403;43.114;12.434;2024-01-25T07:35:07;100214.75;;;2.65;100.00
33280;BME280;20403;43.114;12.434;2024-01-25T07:37:33;100216.19;;;2.77;100.00
33280;BME280;20403;43.114;12.434;2024-01-25T07:39:58;100221.50;;;2.76;100.00
33280;BME280;20403;43.114;12.434;2024-01-25T07:42:23;100215.28;;;2.68;100.00
33280;BME280;20403;43.114;12.434;2024-01-25T07:44:49;100217.53;;;2.81;100.00
33280;BME280;20403;43.114;12.434;2024-01-25T07:47:14;100216.41;;;2.84;100.00
33280;BME280;20403;43.114;12.434;2024-01-25T07:49:40;100215.28;;;2.96;100.00
33280;BME280;20403;43.114;12.434;2024-01-25T07:52:06;100215.41;;;2.94;100.00
33280;BME280;20403;43.114;12.434;2024-01-25T07:54:31;100217.88;;;2.86;100.00
33280;BME280;20403;43.114;12.434;2024-01-25T07:56:57;100212.31;;;2.91;100.00
33280;BME280;20403;43.114;12.434;2024-01-25T07:59:22;100207.69;;;2.94;100.00
33280;BME280;20403;43.114;12.434;2024-01-25T08:01:47;100211.00;;;3.05;100.00
33280;BME280;20403;43.114;12.434;2024-01-25T08:04:13;100207.06;;;3.10;100.00
33280;BME280;20403;43.114;12.434;2024-01-25T08:06:38;100196.97;;;3.17;100.00
33280;BME280;20403;43.114;12.434;2024-01-25T08:09:04;100202.47;;;3.04;100.00
33280;BME280;20403;43.114;12.434;2024-01-25T08:11:29;100200.06;;;3.03;100.00
33280;BME280;20403;43.114;12.434;2024-01-25T08:13:55;100203.25;;;3.14;100.00
33280;BME280;20403;43.114;12.434;2024-01-25T08:16:20;100199.81;;;3.14;100.00
33280;BME280;20403;43.114;12.434;2024-01-25T08:18:48;100194.03;;;3.12;100.00
33280;BME280;20403;43.114;12.434;2024-01-25T08:21:14;100196.75;;;3.28;100.00
33280;BME280;20403;43.114;12.434;2024-01-25T08:23:40;100193.44;;;3.36;100.00
33280;BME280;20403;43.114;12.434;2024-01-25T08:26:06;100192.56;;;3.27;100.00
33280;BME280;20403;43.114;12.434;2024-01-25T08:28:40;100201.47;;;3.33;100.00
33280;BME280;20403;43.114;12.434;2024-01-25T08:31:06;100210.03;;;3.33;100.00
33280;BME280;20403;43.114;12.434;2024-01-25T08:33:33;100211.72;;;3.43;100.00
33280;BME280;20403;43.114;12.434;2024-01-25T08:35:59;100209.41;;;3.57;100.00
33280;BME280;20403;43.114;12.434;2024-01-25T08:38:24;100216.56;;;3.64;100.00
33280;BME280;20403;43.114;12.434;2024-01-25T08:40:49;100211.97;;;3.75;100.00
33280;BME280;20403;43.114;12.434;2024-01-25T08:43:15;100207.78;;;3.74;100.00
33280;BME280;20403;43.114;12.434;2024-01-25T08:45:40;100208.16;;;3.79;100.00
33280;BME280;20403;43.114;12.434;2024-01-25T08:48:06;100204.81;;;3.87;100.00
33280;BME280;20403;43.114;12.434;2024-01-25T08:50:34;100209.50;;;3.92;100.00
33280;BME280;20403;43.114;12.434;2024-01-25T08:52:59;100215.34;;;3.94;100.00
33280;BME280;20403;43.114;12.434;2024-01-25T08:55:25;100212.31;;;3.98;100.00
33280;BME280;20403;43.114;12.434;2024-01-25T08:57:50;100209.78;;;4.07;100.00
33280;BME280;20403;43.114;12.434;2024-01-25T09:00:16;100199.38;;;4.16;100.00
33280;BME280;20403;43.114;12.434;2024-01-25T09:02:41;100206.34;;;4.24;100.00
33280;BME280;20403;43.114;12.434;2024-01-25T09:05:08;100219.66;;;4.37;100.00
33280;BME280;20403;43.114;12.434;2024-01-25T09:07:33;100209.97;;;4.39;100.00
33280;BME280;20403;43.114;12.434;2024-01-25T09:09:59;100220.50;;;4.46;100.00
33280;BME280;20403;43.114;12.434;2024-01-25T09:12:24;100218.06;;;4.45;100.00
33280;BME280;20403;43.114;12.434;2024-01-25T09:14:50;100213.69;;;4.45;100.00
33280;BME280;20403;43.114;12.434;2024-01-25T09:17:15;100215.63;;;4.43;100.00
33280;BME280;20403;43.114;12.434;2024-01-25T09:19:49;100221.66;;;4.52;100.00
33280;BME280;20403;43.114;12.434;2024-01-25T09:22:16;100222.63;;;4.51;100.00
33280;BME280;20403;43.114;12.434;2024-01-25T09:24:44;100226.22;;;4.58;100.00
33280;BME280;20403;43.114;12.434;2024-01-25T09:27:09;100229.78;;;4.65;100.00
33280;BME280;20403;43.114;12.434;2024-01-25T09:29:35;100238.66;;;4.62;100.00
33280;BME280;20403;43.114;12.434;2024-01-25T09:32:01;100243.38;;;4.67;100.00
33280;BME280;20403;43.114;12.434;2024-01-25T09:34:26;100241.25;;;4.62;100.00
33280;BME280;20403;43.114;12.434;2024-01-25T09:36:51;100231.25;;;4.68;100.00
33280;BME280;20403;43.114;12.434;2024-01-25T09:39:17;100237.72;;;4.72;100.00
33280;BME280;20403;43.114;12.434;2024-01-25T09:41:43;100240.50;;;4.78;100.00
33280;BME280;20403;43.114;12.434;2024-01-25T09:44:09;100247.78;;;4.83;100.00
33280;BME280;20403;43.114;12.434;2024-01-25T09:46:35;100242.31;;;4.86;100.00
33280;BME280;20403;43.114;12.434;2024-01-25T09:49:01;100245.09;;;5.01;100.00
33280;BME280;20403;43.114;12.434;2024-01-25T09:51:29;100235.72;;;5.08;100.00
33280;BME280;20403;43.114;12.434;2024-01-25T09:54:00;100236.84;;;5.05;100.00
33280;BME280;20403;43.114;12.434;2024-01-25T09:56:27;100235.72;;;5.00;100.00
33280;BME280;20403;43.114;12.434;2024-01-25T09:58:55;100238.00;;;5.03;100.00
33280;BME280;20403;43.114;12.434;2024-01-25T10:01:21;100237.50;;;5.08;100.00
33280;BME280;20403;43.114;12.434;2024-01-25T10:03:46;100237.38;;;5.17;100.00
33280;BME280;20403;43.114;12.434;2024-01-25T10:06:12;100225.47;;;5.33;100.00
33280;BME280;20403;43.114;12.434;2024-01-25T10:08:38;100206.72;;;5.39;100.00
33280;BME280;20403;43.114;12.434;2024-01-25T10:11:04;100208.16;;;5.33;100.00
33280;BME280;20403;43.114;12.434;2024-01-25T10:13:30;100211.25;;;5.37;100.00
33280;BME280;20403;43.114;12.434;2024-01-25T10:15:56;100205.91;;;5.46;100.00
33280;BME280;20403;43.114;12.434;2024-01-25T10:18:25;100189.56;;;5.54;100.00
33280;BME280;20403;43.114;12.434;2024-01-25T10:20:53;100185.06;;;5.64;100.00
33280;BME280;20403;43.114;12.434;2024-01-25T10:23:18;100183.59;;;5.70;100.00
33280;BME280;20403;43.114;12.434;2024-01-25T10:25:44;100182.47;;;5.81;100.00
33280;BME280;20403;43.114;12.434;2024-01-25T10:28:09;100172.06;;;5.89;100.00
33280;BME280;20403;43.114;12.434;2024-01-25T10:30:35;100176.16;;;6.00;100.00
33280;BME280;20403;43.114;12.434;2024-01-25T10:33:02;100172.41;;;6.10;100.00
33280;BME280;20403;43.114;12.434;2024-01-25T10:35:28;100177.69;;;6.25;100.00
33280;BME280;20403;43.114;12.434;2024-01-25T10:37:54;100197.13;;;6.21;100.00
33280;BME280;20403;43.114;12.434;2024-01-25T10:40:21;100195.69;;;6.27;100.00
33280;BME280;20403;43.114;12.434;2024-01-25T10:42:47;100195.47;;;6.37;100.00
33280;BME280;20403;43.114;12.434;2024-01-25T10:45:13;100187.69;;;6.45;100.00
33280;BME280;20403;43.114;12.434;2024-01-25T10:47:39;100170.50;;;6.44;100.00
33280;BME280;20403;43.114;12.434;2024-01-25T10:50:12;100165.38;;;6.36;100.00
33280;BME280;20403;43.114;12.434;2024-01-25T10:52:40;100178.28;;;6.44;100.00
33280;BME280;20403;43.114;12.434;2024-01-25T10:55:07;100180.22;;;6.50;100.00
33280;BME280;20403;43.114;12.434;2024-01-25T10:57:37;100175.69;;;6.52;100.00
33280;BME280;20403;43.114;12.434;2024-01-25T11:00:06;100172.75;;;6.55;100.00
33280;BME280;20403;43.114;12.434;2024-01-25T11:02:34;100161.09;;;6.51;100.00
33280;BME280;20403;43.114;12.434;2024-01-25T11:05:00;100155.09;;;6.50;100.00
33280;BME280;20403;43.114;12.434;2024-01-25T11:07:26;100149.25;;;6.57;100.00
33280;BME280;20403;43.114;12.434;2024-01-25T11:09:52;100142.22;;;6.65;100.00
33280;BME280;20403;43.114;12.434;2024-01-25T11:12:18;100138.28;;;6.78;100.00
33280;BME280;20403;43.114;12.434;2024-01-25T11:14:44;100129.22;;;6.82;100.00
33280;BME280;20403;43.114;12.434;2024-01-25T11:17:22;100130.44;;;6.86;100.00
33280;BME280;20403;43.114;12.434;2024-01-25T11:19:49;100124.75;;;6.90;100.00
33280;BME280;20403;43.114;12.434;2024-01-25T11:22:17;100120.69;;;6.96;100.00
33280;BME280;20403;43.114;12.434;2024-01-25T11:24:43;100109.38;;;7.12;100.00
33280;BME280;20403;43.114;12.434;2024-01-25T11:27:11;100114.78;;;7.25;100.00
33280;BME280;20403;43.114;12.434;2024-01-25T11:29:38;100118.38;;;7.39;100.00
33280;BME280;20403;43.114;12.434;2024-01-25T11:32:05;100119.59;;;7.51;100.00
33280;BME280;20403;43.114;12.434;2024-01-25T11:34:30;100114.59;;;7.65;100.00
33280;BME280;20403;43.114;12.434;2024-01-25T11:36:57;100112.56;;;7.75;100.00
33280;BME280;20403;43.114;12.434;2024-01-25T11:39:23;100108.25;;;7.82;100.00
33280;BME280;20403;43.114;12.434;2024-01-25T11:41:51;100104.34;;;7.86;100.00
33280;BME280;20403;43.114;12.434;2024-01-25T11:44:17;100094.19;;;7.91;100.00
33280;BME280;20403;43.114;12.434;2024-01-25T11:46:42;100096.09;;;7.97;100.00
33280;BME280;20403;43.114;12.434;2024-01-25T11:49:08;100090.38;;;8.02;100.00
33280;BME280;20403;43.114;12.434;2024-01-25T11:51:34;100094.81;;;8.08;100.00
33280;BME280;20403;43.114;12.434;2024-01-25T11:53:59;100096.69;;;8.14;100.00
33280;BME280;20403;43.114;12.434;2024-01-25T11:56:31;100098.75;;;8.19;100.00
33280;BME280;20403;43.114;12.434;2024-01-25T11:58:58;100095.06;;;8.28;100.00
33280;BME280;20403;43.114;12.434;2024-01-25T12:01:25;100079.94;;;8.32;100.00
33280;BME280;20403;43.114;12.434;2024-01-25T12:03:51;100091.94;;;8.33;100.00
33280;BME280;20403;43.114;12.434;2024-01-25T12:06:17;100092.66;;;8.27;100.00
33280;BME280;20403;43.114;12.434;2024-01-25T12:08:44;100083.78;;;8.21;100.00
33280;BME280;20403;43.114;12.434;2024-01-25T12:11:11;100092.38;;;8.21;100.00
33280;BME280;20403;43.114;12.434;2024-01-25T12:13:41;100089.00;;;8.21;100.00
33280;BME280;20403;43.114;12.434;2024-01-25T12:16:08;100084.84;;;8.27;100.00
33280;BME280;20403;43.114;12.434;2024-01-25T12:18:34;100091.47;;;8.29;100.00
33280;BME280;20403;43.114;12.434;2024-01-25T12:21:02;100084.38;;;8.38;100.00
33280;BME280;20403;43.114;12.434;2024-01-25T12:23:31;100073.19;;;8.37;100.00
33280;BME280;20403;43.114;12.434;2024-01-25T12:25:59;100075.28;;;8.42;100.00
33280;BME280;20403;43.114;12.434;2024-01-25T12:28:29;100074.34;;;8.50;100.00
33280;BME280;20403;43.114;12.434;2024-01-25T12:30:55;100074.25;;;8.58;100.00
33280;BME280;20403;43.114;12.434;2024-01-25T12:33:21;100076.53;;;8.68;100.00